ADDS METAR Data INFO
IDs: Format: Raw Decoded Include TAF

Data at: 0257 UTC 21 Jan 2018

KAQW 210252Z AUTO VRB05KT 10SM FEW035 03/M03 A2998 RMK AO2 SLP159 T00331028 52019
KAQW 210152Z AUTO 30005KT 10SM CLR 03/M03 A2995 RMK AO2 SLP152 T00331033
KAQW 210052Z AUTO 30005KT 10SM CLR 04/M03 A2994 RMK AO2 SLP148 T00441028
KAQW 202352Z AUTO 22005KT 10SM CLR 04/M03 A2992 RMK AO2 SLP141 T00391033 10072 20028 51036
KAQW 202252Z AUTO VRB04KT 10SM CLR 03/M03 A2990 RMK AO2 SLP133 T00281033
KAQW 202152Z AUTO 29003KT 10SM CLR 06/M03 A2985 RMK AO2 SLP116 T00561033
KAQW 202052Z AUTO 27012G17KT 10SM CLR 07/M03 A2981 RMK AO2 SLP104 T00671033 53017
KAQW 201952Z AUTO 26006KT 10SM CLR 07/M03 A2979 RMK AO2 SLP095 T00671033
KAQW 201852Z AUTO 29007KT 10SM FEW046 06/M04 A2977 RMK AO2 SLP089 T00611039
KAQW 201752Z AUTO VRB03KT 10SM FEW046 06/M04 A2976 RMK AO2 SLP087 T00611039 10061 21072 58008
KAQW 201652Z AUTO 30004KT 10SM FEW044 06/M04 A2976 RMK AO2 SLP087 T00561039
KAQW 201552Z AUTO VRB06KT 10SM OVC046 05/M05 A2979 RMK AO2 SLP095 T00501050
KAQW 201452Z AUTO 00000KT 10SM BKN048 M03/M06 A2979 RMK AO2 SLP097 T10281056 51014
KAQW 201352Z AUTO 00000KT 6SM BR CLR M06/M07 A2978 RMK AO2 SLP095 T10611072
KAQW 201252Z AUTO 00000KT 6SM BR CLR M07/M08 A2976 RMK AO2 SLP089 T10671083
KAQW 201152Z AUTO 00000KT 7SM CLR M07/M09 A2974 RMK AO2 SLP084 I6000 T10721089 11072 21106 55005
KAQW 201052Z AUTO 00000KT 7SM CLR M07/M09 A2973 RMK AO2 SLP077 T10721089
KAQW 200952Z AUTO 00000KT 7SM CLR M09/M10 A2974 RMK AO2 SLP080 T10891100
KAQW 200852Z AUTO 00000KT 6SM BR CLR M09/M11 A2976 RMK AO2 SLP087 I3000 T10941111 58017
KAQW 200752Z AUTO 00000KT 5SM BR CLR M09/M11 A2979 RMK AO2 SLP099 T10941106
KAQW 200652Z AUTO 00000KT 6SM BR CLR M10/M11 A2982 RMK AO2 SLP107 I1000 T11001111
KAQW 200552Z AUTO 00000KT 5SM BR CLR M10/M11 A2981 RMK AO2 SLP106 I1000 I6000 T11001111 11050 21106 58022
KAQW 200452Z AUTO 00000KT 5SM BR CLR M09/M10 A2983 RMK AO2 SLP112 I1000 T10941100 410171100
KAQW 200352Z AUTO VRB03KT 5SM BR CLR M08/M09 A2986 RMK AO2 SLP124 I1000 T10831094
KAQW 200252Z AUTO 00000KT 6SM BR CLR M07/M08 A2987 RMK AO2 SLP127 T10721083 58011
KAQW 200152Z AUTO 00000KT 5SM BR CLR M08/M09 A2989 RMK AO2 SLP133 T10781089
KAQW 200052Z AUTO 00000KT 7SM CLR M06/M08 A2991 RMK AO2 SLP141 T10611083
KAQW 192352Z AUTO 20003KT 7SM CLR M05/M08 A2991 RMK AO2 SLP138 T10501078 11017 21050 56007
KAQW 192252Z AUTO 29004KT 9SM OVC032 M02/M07 A2991 RMK AO2 SLP138 T10221067
KAQW 192227Z AUTO 29003KT 8SM OVC031 M02/M07 A2991 RMK AO2 T10221067
KAQW 192152Z AUTO 00000KT 8SM OVC025 M02/M07 A2990 RMK AO2 SLP136 T10171067
KAQW 192052Z AUTO 28006KT 10SM OVC026 M02/M07 A2993 RMK AO2 SLP144 T10171072 53001
KAQW 191952Z AUTO 27009KT 10SM OVC029 M02/M08 A2992 RMK AO2 SLP140 T10171078
KAQW 191923Z AUTO 28009KT 10SM OVC029 M02/M08 A2992 RMK AO2 T10171078
KAQW 191852Z AUTO 27010KT 10SM BKN030 OVC039 M02/M08 A2992 RMK AO2 SLP141 T10171083
KAQW 191752Z AUTO 27007KT 10SM OVC031 M02/M09 A2993 RMK AO2 SLP143 T10221089 11022 21061 58018
KAQW 191652Z AUTO 30005KT 10SM OVC034 M02/M09 A2995 RMK AO2 SLP152 T10221094
KAQW 191552Z AUTO 27007KT 10SM OVC035 M03/M09 A2998 RMK AO2 SLP161 T10281094